Time;durP1;ratioP1;P1;durP2;ratioP2;P2;SDS_P1;SDS_P2;PMS_P1;PMS_P2;Temp;Humidity;BMP_temperature;BMP_pressure;BME280_temperature;BME280_humidity;BME280_pressure;Samples;Min_cycle;Max_cycle;Signal;HPM_P1;HPM_P2
2022/06/05 00:00:25;;;;;;;41.88;37.58;;;15.90;99.90;;;;;;2079998;28;20768;-73
2022/06/05 00:01:26;;;;;;;42.85;38.22;;;15.90;99.90;;;;;;2072433;28;20041;-72
2022/06/05 00:02:33;;;;;;;42.80;38.45;;;15.80;99.90;;;;;;2072078;28;20045;-73
2022/06/05 00:03:46;;;;;;;43.67;39.08;;;15.80;99.90;;;;;;2080916;28;20025;-73
2022/06/05 00:05:08;;;;;;;41.97;37.67;;;15.80;99.90;;;;;;2089249;28;20056;-73
2022/06/05 00:06:24;;;;;;;42.28;37.70;;;15.80;99.90;;;;;;2088441;28;20037;-73
2022/06/05 00:07:30;;;;;;;44.80;40.13;;;15.80;99.90;;;;;;2088470;28;20021;-73
2022/06/05 00:08:37;;;;;;;43.00;38.60;;;15.70;99.90;;;;;;2079356;28;20057;-73
2022/06/05 00:09:50;;;;;;;43.33;38.65;;;15.70;99.90;;;;;;2080164;28;20098;-73
2022/06/05 00:10:54;;;;;;;42.35;37.95;;;15.70;99.90;;;;;;2088119;28;20028;-73
2022/06/05 00:12:03;;;;;;;42.13;37.72;;;15.70;99.90;;;;;;2088153;28;20032;-73
2022/06/05 00:13:16;;;;;;;41.20;36.95;;;15.70;99.90;;;;;;2079233;28;20112;-73
2022/06/05 00:14:17;;;;;;;40.83;36.63;;;15.70;99.90;;;;;;2081136;28;20120;-72
2022/06/05 00:15:18;;;;;;;42.13;37.67;;;15.60;99.90;;;;;;2088163;28;20028;-73
2022/06/05 00:16:24;;;;;;;42.08;37.78;;;15.60;99.90;;;;;;2088171;28;20036;-72
2022/06/05 00:17:24;;;;;;;42.88;38.35;;;15.60;99.90;;;;;;2079274;28;20124;-72
2022/06/05 00:18:25;;;;;;;42.40;38.08;;;15.60;99.90;;;;;;2078878;28;20060;-72
2022/06/05 00:19:26;;;;;;;40.88;36.67;;;15.60;99.90;;;;;;2088264;28;20021;-72
2022/06/05 00:20:27;;;;;;;40.53;36.33;;;15.60;99.90;;;;;;2088153;28;20036;-72
2022/06/05 00:21:28;;;;;;;40.78;36.70;;;15.60;99.90;;;;;;2088043;28;20430;-72
2022/06/05 00:22:28;;;;;;;41.80;37.50;;;15.60;99.90;;;;;;2088077;28;20040;-72
2022/06/05 00:23:30;;;;;;;43.28;38.88;;;15.50;99.90;;;;;;2088100;28;20029;-72
2022/06/05 00:24:31;;;;;;;41.80;37.28;;;15.50;99.90;;;;;;2088178;28;20517;-73
2022/06/05 00:25:42;;;;;;;42.17;37.88;;;15.50;99.90;;;;;;2079267;28;20083;-73
2022/06/05 00:26:54;;;;;;;42.17;37.88;;;15.50;99.90;;;;;;2072550;28;20112;-73
2022/06/05 00:28:18;;;;;;;41.70;37.33;;;15.50;99.90;;;;;;2080497;28;20025;-72
2022/06/05 00:29:37;;;;;;;40.83;36.53;;;15.50;99.90;;;;;;2088072;28;20025;-72
2022/06/05 00:30:56;;;;;;;42.05;37.72;;;15.50;99.90;;;;;;2088007;28;20109;-72
2022/06/05 00:32:09;;;;;;;41.58;37.17;;;15.40;99.90;;;;;;2088035;28;20033;-73
2022/06/05 00:33:35;;;;;;;42.28;38.05;;;15.40;99.90;;;;;;2087999;28;20027;-73
2022/06/05 00:34:36;;;;;;;42.58;38.13;;;15.40;99.90;;;;;;2088148;28;20476;-72
2022/06/05 00:35:54;;;;;;;42.40;37.90;;;15.40;99.90;;;;;;2088234;28;20037;-72
2022/06/05 00:37:12;;;;;;;42.25;37.75;;;15.30;99.90;;;;;;2071118;28;20041;-73
2022/06/05 00:38:48;;;;;;;40.72;36.55;;;15.30;99.90;;;;;;2075463;28;20092;-72
2022/06/05 00:39:53;;;;;;;40.15;35.97;;;15.30;99.90;;;;;;2079161;28;20603;-72
2022/06/05 00:41:06;;;;;;;41.58;37.28;;;15.30;99.90;;;;;;2079984;28;20586;-73
2022/06/05 00:42:10;;;;;;;41.28;36.95;;;15.30;99.90;;;;;;2088027;28;20406;-72
2022/06/05 00:43:14;;;;;;;40.80;36.50;;;15.30;99.90;;;;;;2087250;28;20016;-72
2022/06/05 00:44:19;;;;;;;43.00;38.50;;;15.30;99.90;;;;;;2088042;28;20029;-73
2022/06/05 00:45:20;;;;;;;41.38;37.08;;;15.30;99.90;;;;;;2079261;28;20511;-73
2022/06/05 00:46:24;;;;;;;41.47;37.10;;;15.30;99.90;;;;;;2079190;28;20257;-73
2022/06/05 00:47:27;;;;;;;41.35;37.22;;;15.30;99.90;;;;;;2088071;28;20108;-73
2022/06/05 00:48:28;;;;;;;41.38;37.17;;;15.30;99.90;;;;;;2087804;28;20033;-73
2022/06/05 00:49:37;;;;;;;39.47;35.38;;;15.30;99.90;;;;;;2088146;28;20060;-73
2022/06/05 00:50:42;;;;;;;40.15;35.95;;;15.30;99.90;;;;;;2079277;28;20021;-72
2022/06/05 00:51:42;;;;;;;41.17;36.95;;;15.30;99.90;;;;;;2079656;28;20507;-73
2022/06/05 00:52:50;;;;;;;41.20;36.97;;;15.20;99.90;;;;;;2087899;28;20031;-72
2022/06/05 00:53:51;;;;;;;42.58;38.13;;;15.20;99.90;;;;;;2079071;28;20034;-72
2022/06/05 00:54:51;;;;;;;40.88;36.63;;;15.20;99.90;;;;;;2079041;28;20576;-73
2022/06/05 00:55:53;;;;;;;40.50;36.38;;;15.20;99.90;;;;;;2087867;28;20033;-72
2022/06/05 00:56:53;;;;;;;40.50;36.33;;;15.20;99.90;;;;;;2078959;28;20033;-72
2022/06/05 00:57:55;;;;;;;42.15;37.78;;;15.20;99.90;;;;;;2078986;28;20115;-73
2022/06/05 00:58:56;;;;;;;41.47;37.28;;;15.20;99.90;;;;;;2087559;28;20517;-73
2022/06/05 01:00:03;;;;;;;41.70;37.40;;;15.20;99.90;;;;;;2087757;28;20033;-72
2022/06/05 01:01:04;;;;;;;40.58;36.47;;;15.10;99.90;;;;;;2087876;28;20033;-72
2022/06/05 01:02:07;;;;;;;39.83;35.65;;;15.10;99.90;;;;;;2087737;28;20141;-73
2022/06/05 01:03:10;;;;;;;37.70;33.78;;;15.10;99.90;;;;;;2087991;28;20021;-72
2022/06/05 01:04:12;;;;;;;38.75;34.88;;;15.20;99.90;;;;;;2087775;28;20025;-72
2022/06/05 01:05:15;;;;;;;39.67;35.67;;;15.20;99.90;;;;;;2079017;28;20586;-72
2022/06/05 01:06:15;;;;;;;39.65;35.60;;;15.10;99.90;;;;;;2079060;28;20593;-73
2022/06/05 01:07:18;;;;;;;40.58;36.30;;;15.10;99.90;;;;;;2087829;28;20099;-72
2022/06/05 01:08:19;;;;;;;37.85;34.05;;;15.10;99.90;;;;;;2087575;28;20036;-73
2022/06/05 01:09:20;;;;;;;38.95;35.05;;;15.10;99.90;;;;;;2087868;28;20533;-73
2022/06/05 01:10:25;;;;;;;39.03;35.03;;;15.10;99.90;;;;;;2078794;28;20055;-73
2022/06/05 01:11:39;;;;;;;40.20;36.10;;;15.10;99.90;;;;;;2079756;28;20416;-73
2022/06/05 01:12:43;;;;;;;37.75;33.85;;;15.10;99.90;;;;;;2087862;28;20502;-72
2022/06/05 01:14:01;;;;;;;38.08;34.17;;;15.00;99.90;;;;;;2087735;28;20029;-72
2022/06/05 01:15:04;;;;;;;40.50;36.40;;;15.00;99.90;;;;;;2087817;28;20025;-72
2022/06/05 01:16:05;;;;;;;39.40;35.38;;;15.00;99.90;;;;;;2087563;28;20025;-72
2022/06/05 01:17:28;;;;;;;38.78;34.65;;;15.00;99.90;;;;;;2087683;28;20028;-72
2022/06/05 01:19:09;;;;;;;37.97;34.17;;;14.90;99.90;;;;;;2087649;28;20021;-73
2022/06/05 01:20:30;;;;;;;;;;;14.90;99.90;;;;;;2076696;28;20087;-72
2022/06/05 01:21:41;;;;;;;39.15;34.88;;;14.90;99.90;;;;;;2081024;28;19959;-72
2022/06/05 01:23:18;;;;;;;37.70;33.70;;;14.90;99.90;;;;;;2078975;28;20029;-72
2022/06/05 01:24:21;;;;;;;38.25;34.35;;;14.90;99.90;;;;;;2084009;28;20032;-72
2022/06/05 01:25:40;;;;;;;37.25;33.45;;;14.80;99.90;;;;;;2087578;28;20087;-73
2022/06/05 01:26:47;;;;;;;37.20;33.40;;;14.80;99.90;;;;;;2087572;28;20036;-73
2022/06/05 01:27:54;;;;;;;38.00;34.13;;;14.80;99.90;;;;;;2087826;28;20032;-73
2022/06/05 01:29:04;;;;;;;38.00;34.10;;;14.80;99.90;;;;;;2087262;28;20399;-73
2022/06/05 01:30:22;;;;;;;36.45;32.72;;;14.80;99.90;;;;;;2087558;28;20415;-73
2022/06/05 01:31:32;;;;;;;35.95;32.35;;;14.80;99.90;;;;;;2087679;28;20582;-73
2022/06/05 01:32:46;;;;;;;36.58;32.88;;;14.80;99.90;;;;;;2078885;28;20634;-73
2022/06/05 01:34:13;;;;;;;37.83;33.92;;;14.80;99.90;;;;;;2081085;28;20412;-73
2022/06/05 01:35:35;;;;;;;36.28;32.55;;;14.70;99.90;;;;;;2078621;28;20633;-72
2022/06/05 01:36:55;;;;;;;37.65;33.85;;;14.70;99.90;;;;;;2079072;28;20060;-73
2022/06/05 01:38:07;;;;;;;37.53;33.67;;;14.70;99.90;;;;;;2081579;28;20033;-73
2022/06/05 01:39:16;;;;;;;37.25;33.42;;;14.70;99.90;;;;;;2087705;28;20091;-72
2022/06/05 01:40:28;;;;;;;39.13;35.10;;;14.70;99.90;;;;;;2087506;28;20029;-73
2022/06/05 01:41:35;;;;;;;39.20;35.20;;;14.70;99.90;;;;;;2087689;28;20120;-73
2022/06/05 01:42:40;;;;;;;39.72;35.53;;;14.70;99.90;;;;;;2087703;28;20076;-72
2022/06/05 01:43:47;;;;;;;40.05;35.83;;;14.70;99.90;;;;;;2087744;28;20037;-73
2022/06/05 01:44:51;;;;;;;36.83;33.13;;;14.70;99.90;;;;;;2087715;28;20028;-72
2022/06/05 01:45:56;;;;;;;38.67;34.67;;;14.60;99.90;;;;;;2087503;28;20032;-73
2022/06/05 01:47:01;;;;;;;38.00;34.08;;;14.60;99.90;;;;;;2087646;28;20025;-72
2022/06/05 01:48:05;;;;;;;39.35;35.25;;;14.70;99.90;;;;;;2087404;28;20021;-72
2022/06/05 01:49:23;;;;;;;40.13;36.03;;;14.60;99.90;;;;;;2078769;28;20205;-72
2022/06/05 01:50:41;;;;;;;39.70;35.70;;;14.70;99.90;;;;;;2081143;28;20116;-72
2022/06/05 01:51:52;;;;;;;36.90;33.17;;;14.60;99.90;;;;;;2087529;28;20029;-73
2022/06/05 01:52:58;;;;;;;;;;;14.60;99.90;;;;;;2088126;28;20360;-73
2022/06/05 01:54:03;;;;;;;38.22;34.30;;;14.60;99.90;;;;;;2087633;28;20046;-73
2022/06/05 01:55:25;;;;;;;37.78;33.78;;;14.60;99.90;;;;;;2088921;28;20024;-73
2022/06/05 01:56:41;;;;;;;36.85;33.20;;;14.60;99.90;;;;;;2089322;28;20395;-73
2022/06/05 01:57:42;;;;;;;38.92;34.92;;;14.60;99.90;;;;;;2089251;28;20052;-73
2022/06/05 01:58:47;;;;;;;39.17;35.17;;;14.60;99.90;;;;;;2089043;28;20033;-73
2022/06/05 01:59:53;;;;;;;39.80;35.67;;;14.60;99.90;;;;;;2089388;28;20068;-74
2022/06/05 02:00:59;;;;;;;38.95;34.85;;;14.60;99.90;;;;;;2089443;28;20423;-73
2022/06/05 02:02:04;;;;;;;38.83;34.83;;;14.50;99.90;;;;;;2089512;28;20036;-73
2022/06/05 02:03:18;;;;;;;38.33;34.42;;;14.60;99.90;;;;;;2080517;28;20083;-73
2022/06/05 02:04:46;;;;;;;39.08;35.17;;;14.60;99.90;;;;;;2082215;28;20060;-74
2022/06/05 02:05:58;;;;;;;38.63;34.63;;;14.50;99.90;;;;;;2080143;28;20038;-73
2022/06/05 02:07:13;;;;;;;38.45;34.58;;;14.50;99.90;;;;;;2082074;28;20030;-74
2022/06/05 02:08:32;;;;;;;38.45;34.53;;;14.50;99.90;;;;;;2089066;28;20132;-72
2022/06/05 02:09:35;;;;;;;37.47;33.67;;;14.50;99.90;;;;;;2080388;28;20435;-73
2022/06/05 02:10:52;;;;;;;37.78;33.97;;;14.50;99.90;;;;;;2080558;28;20030;-73
2022/06/05 02:11:52;;;;;;;38.00;34.20;;;14.50;99.90;;;;;;2089167;28;20041;-73
2022/06/05 02:12:54;;;;;;;38.15;34.25;;;14.50;99.90;;;;;;2089230;28;20029;-73
2022/06/05 02:14:00;;;;;;;37.75;33.95;;;14.50;99.90;;;;;;2080231;28;20056;-73
2022/06/05 02:15:02;;;;;;;40.30;36.15;;;14.50;99.90;;;;;;2081010;28;20030;-73
2022/06/05 02:16:03;;;;;;;38.78;34.67;;;14.40;99.90;;;;;;2089125;28;20025;-73
2022/06/05 02:17:05;;;;;;;37.25;33.45;;;14.50;99.90;;;;;;2089045;28;20735;-73
2022/06/05 02:18:05;;;;;;;37.17;33.38;;;14.40;99.90;;;;;;2080103;28;20025;-73
2022/06/05 02:19:19;;;;;;;37.95;34.15;;;14.50;99.90;;;;;;2080589;28;20034;-72
2022/06/05 02:20:19;;;;;;;38.05;34.25;;;14.40;99.90;;;;;;2080398;28;20104;-73
2022/06/05 02:21:20;;;;;;;39.70;35.72;;;14.40;99.90;;;;;;2080408;28;20124;-73
2022/06/05 02:22:29;;;;;;;37.47;33.75;;;14.40;99.90;;;;;;2089044;28;20509;-72
2022/06/05 02:23:33;;;;;;;39.28;35.08;;;14.40;99.90;;;;;;2080368;28;20902;-72
2022/06/05 02:24:34;;;;;;;38.30;34.40;;;14.40;99.90;;;;;;2080884;28;20488;-73
2022/06/05 02:25:35;;;;;;;38.03;34.00;;;14.40;99.90;;;;;;2081748;28;20030;-72
2022/06/05 02:26:37;;;;;;;38.95;35.00;;;14.40;99.90;;;;;;2079212;28;20033;-72
2022/06/05 02:27:38;;;;;;;39.22;35.13;;;14.40;99.90;;;;;;2080073;28;20100;-72
2022/06/05 02:28:39;;;;;;;37.92;34.00;;;14.40;99.90;;;;;;2077367;28;20096;-73
2022/06/05 02:29:40;;;;;;;38.47;34.65;;;14.30;99.90;;;;;;2086467;28;20051;-73
2022/06/05 02:30:52;;;;;;;37.58;33.85;;;14.40;99.90;;;;;;2087960;28;20051;-73
2022/06/05 02:31:56;;;;;;;37.53;33.65;;;14.40;99.90;;;;;;2082252;28;20100;-73
2022/06/05 02:33:35;;;;;;;36.10;32.50;;;14.40;99.90;;;;;;2088916;28;20033;-73
2022/06/05 02:34:58;;;;;;;39.08;34.85;;;14.40;99.90;;;;;;2080055;28;20389;-72
2022/06/05 02:36:41;;;;;;;37.50;33.55;;;14.30;99.90;;;;;;2083511;28;20024;-73
2022/06/05 02:38:20;;;;;;;39.90;35.70;;;14.30;99.90;;;;;;2089151;28;20033;-73
2022/06/05 02:39:57;;;;;;;41.65;37.45;;;14.30;99.90;;;;;;2043245;28;20050;-73
2022/06/05 02:41:26;;;;;;;39.13;34.83;;;14.30;99.90;;;;;;2080182;28;20034;-73
2022/06/05 02:42:31;;;;;;;38.75;34.75;;;14.20;99.90;;;;;;2084157;28;20074;-72
2022/06/05 02:43:42;;;;;;;38.78;34.78;;;14.20;99.90;;;;;;2080127;28;20113;-73
2022/06/05 02:45:09;;;;;;;39.03;35.03;;;14.20;99.90;;;;;;2073422;28;20034;-73
2022/06/05 02:46:22;;;;;;;40.45;36.20;;;14.20;99.90;;;;;;2049875;28;20051;-73
2022/06/05 02:47:57;;;;;;;39.78;35.65;;;14.20;99.90;;;;;;2081629;28;20024;-72
2022/06/05 02:49:12;;;;;;;39.67;35.60;;;14.20;99.90;;;;;;2088945;28;20025;-73
2022/06/05 02:50:44;;;;;;;40.65;36.28;;;14.20;99.90;;;;;;2088859;28;20025;-73
2022/06/05 02:51:47;;;;;;;38.38;34.47;;;14.20;99.90;;;;;;2071871;28;20149;-73
2022/06/05 02:52:58;;;;;;;40.60;36.20;;;14.10;99.90;;;;;;2072330;28;20084;-73
2022/06/05 02:54:00;;;;;;;38.78;34.88;;;14.20;99.90;;;;;;2089056;28;20113;-72
2022/06/05 02:55:10;;;;;;;38.85;34.88;;;14.10;99.90;;;;;;2080106;28;20152;-73
2022/06/05 02:56:11;;;;;;;39.22;35.10;;;14.10;99.90;;;;;;2081456;28;20021;-73
2022/06/05 02:57:13;;;;;;;40.17;36.08;;;14.10;99.90;;;;;;2071858;28;20064;-73
2022/06/05 02:58:14;;;;;;;38.15;34.33;;;14.10;99.90;;;;;;2071662;28;20033;-73
2022/06/05 02:59:14;;;;;;;38.65;34.85;;;14.10;99.90;;;;;;2079931;28;20029;-73
2022/06/05 03:00:21;;;;;;;38.58;34.50;;;14.10;99.90;;;;;;2079691;28;20032;-73
2022/06/05 03:04:00;;;;;;;39.25;35.33;;;14.10;99.90;;;;;;2088713;28;20024;-73
2022/06/05 03:05:01;;;;;;;39.17;35.22;;;14.10;99.90;;;;;;2088977;28;20045;-72
2022/06/05 03:06:02;;;;;;;38.92;34.88;;;14.10;99.90;;;;;;2079149;28;20041;-72
2022/06/05 03:07:04;;;;;;;39.28;35.17;;;14.10;99.90;;;;;;2080647;28;20029;-72
2022/06/05 03:08:07;;;;;;;40.05;35.95;;;14.10;99.90;;;;;;2088927;28;20033;-73
2022/06/05 03:09:09;;;;;;;39.25;35.25;;;14.10;99.90;;;;;;2089257;28;20032;-73
2022/06/05 03:10:10;;;;;;;40.90;36.60;;;14.10;99.90;;;;;;2079842;28;20018;-73
2022/06/05 03:11:11;;;;;;;39.05;34.90;;;14.10;99.90;;;;;;2079819;28;20021;-73
2022/06/05 03:12:11;;;;;;;37.35;33.55;;;14.10;99.90;;;;;;2088857;28;20760;-73
2022/06/05 03:13:13;;;;;;;38.80;34.80;;;14.10;99.90;;;;;;2088784;28;20095;-73
2022/06/05 03:14:14;;;;;;;38.83;34.72;;;14.10;99.90;;;;;;2088712;28;20025;-73
2022/06/05 03:15:15;;;;;;;37.85;34.05;;;14.10;99.90;;;;;;2080018;28;20485;-73
2022/06/05 03:16:16;;;;;;;39.63;35.53;;;14.10;99.90;;;;;;2079898;28;20095;-73
2022/06/05 03:17:16;;;;;;;40.15;35.88;;;14.10;99.90;;;;;;2088678;28;20499;-73
2022/06/05 03:18:17;;;;;;;38.50;34.65;;;14.00;99.90;;;;;;2088301;28;20615;-73
2022/06/05 03:19:18;;;;;;;38.22;34.22;;;14.10;99.90;;;;;;2088535;28;20475;-73
2022/06/05 03:20:19;;;;;;;39.47;35.42;;;14.00;99.90;;;;;;2089050;28;20021;-74
2022/06/05 03:21:19;;;;;;;38.50;34.63;;;14.10;99.90;;;;;;2089284;28;20475;-73
2022/06/05 03:22:20;;;;;;;37.70;33.90;;;14.10;99.90;;;;;;2089284;28;20483;-73
2022/06/05 03:23:20;;;;;;;37.95;34.05;;;14.10;99.90;;;;;;2089577;28;20017;-72
2022/06/05 03:24:21;;;;;;;37.40;33.63;;;14.00;99.90;;;;;;2089409;28;20475;-74
2022/06/05 03:25:25;;;;;;;37.20;33.47;;;14.00;99.90;;;;;;2089256;28;20036;-73
2022/06/05 03:26:28;;;;;;;39.40;35.28;;;14.10;99.90;;;;;;2089434;28;20033;-73
2022/06/05 03:27:30;;;;;;;37.28;33.38;;;14.10;99.90;;;;;;2089234;28;20067;-72
2022/06/05 03:28:30;;;;;;;37.67;33.90;;;14.10;99.90;;;;;;2080036;28;20524;-74
2022/06/05 03:29:31;;;;;;;37.47;33.65;;;14.00;99.90;;;;;;2080271;28;20037;-74
2022/06/05 03:30:32;;;;;;;37.65;33.85;;;14.10;99.90;;;;;;2088968;28;20056;-73
2022/06/05 03:31:34;;;;;;;37.15;33.40;;;14.10;99.90;;;;;;2089237;28;20495;-73
2022/06/05 03:32:35;;;;;;;39.08;35.08;;;14.10;99.90;;;;;;2080370;28;20029;-72
2022/06/05 03:33:37;;;;;;;38.72;34.72;;;14.10;99.90;;;;;;2080299;28;20022;-72
2022/06/05 03:34:37;;;;;;;37.50;33.60;;;14.10;99.90;;;;;;2089237;28;20033;-73
2022/06/05 03:35:42;;;;;;;38.70;34.80;;;14.10;99.90;;;;;;2089434;28;20039;-74
2022/06/05 03:36:44;;;;;;;36.25;32.55;;;14.10;99.90;;;;;;2089294;28;20036;-73
2022/06/05 03:37:47;;;;;;;37.88;33.97;;;14.10;99.90;;;;;;2089210;28;20044;-73
2022/06/05 03:38:47;;;;;;;38.28;34.30;;;14.10;99.90;;;;;;2088207;28;20029;-73
2022/06/05 03:39:48;;;;;;;36.20;32.60;;;14.10;99.90;;;;;;2088549;28;20049;-73
2022/06/05 03:40:49;;;;;;;36.00;32.30;;;14.20;99.90;;;;;;2088306;28;20039;-73
2022/06/05 03:41:49;;;;;;;36.70;33.00;;;14.10;99.90;;;;;;2079611;28;20037;-72
2022/06/05 03:42:50;;;;;;;37.17;33.25;;;14.20;99.90;;;;;;2079618;28;20060;-72
2022/06/05 03:43:51;;;;;;;38.75;34.75;;;14.20;99.90;;;;;;2079604;28;20677;-72
2022/06/05 03:44:52;;;;;;;36.95;33.22;;;14.20;99.90;;;;;;2079842;28;20036;-72
2022/06/05 03:46:03;;;;;;;37.78;33.85;;;14.20;99.90;;;;;;2088511;28;20033;-72
2022/06/05 03:47:05;;;;;;;37.80;33.85;;;14.20;99.90;;;;;;2088597;28;20041;-72
2022/06/05 03:48:06;;;;;;;37.20;33.33;;;14.20;99.90;;;;;;2087962;28;20029;-72
2022/06/05 03:49:08;;;;;;;36.80;33.00;;;14.20;99.90;;;;;;2088303;28;20500;-72
2022/06/05 03:50:11;;;;;;;38.03;34.05;;;14.30;99.90;;;;;;2088017;28;20025;-72
2022/06/05 03:51:16;;;;;;;37.20;33.33;;;14.30;99.90;;;;;;2079361;28;20021;-72
2022/06/05 03:52:16;;;;;;;37.35;33.35;;;14.30;99.90;;;;;;2079860;28;20039;-72
2022/06/05 03:53:17;;;;;;;37.50;33.55;;;14.30;99.90;;;;;;2088093;28;20036;-72
2022/06/05 03:54:18;;;;;;;36.88;33.10;;;14.30;99.90;;;;;;2088355;28;20550;-72
2022/06/05 03:55:22;;;;;;;37.88;33.90;;;14.30;99.90;;;;;;2079395;28;20029;-73
2022/06/05 03:56:24;;;;;;;38.67;34.47;;;14.30;99.90;;;;;;2080082;28;20507;-73
2022/06/05 03:57:25;;;;;;;38.45;34.40;;;14.40;99.90;;;;;;2079524;28;20515;-72
2022/06/05 03:58:26;;;;;;;38.10;34.08;;;14.40;99.90;;;;;;2078950;28;20108;-73
2022/06/05 03:59:27;;;;;;;39.65;35.38;;;14.40;99.90;;;;;;2088292;28;20029;-73
2022/06/05 04:00:28;;;;;;;40.30;35.83;;;14.40;99.90;;;;;;2088042;28;20368;-72
2022/06/05 04:01:28;;;;;;;40.00;35.70;;;14.50;99.90;;;;;;2088442;28;20025;-73
2022/06/05 04:02:29;;;;;;;38.33;34.33;;;14.60;99.90;;;;;;2088380;28;20120;-73
2022/06/05 04:03:30;;;;;;;40.95;35.83;;;14.70;99.90;;;;;;2088315;28;20079;-73
2022/06/05 04:04:32;;;;;;;40.88;36.47;;;14.70;99.90;;;;;;2079416;28;20137;-73
2022/06/05 04:05:33;;;;;;;37.38;33.47;;;14.90;99.90;;;;;;2079662;28;20491;-73
2022/06/05 04:06:34;;;;;;;36.42;32.58;;;15.10;99.90;;;;;;2079259;28;20033;-73
2022/06/05 04:07:35;;;;;;;35.97;32.13;;;15.30;99.90;;;;;;2079629;28;20036;-72
2022/06/05 04:08:36;;;;;;;34.40;30.75;;;15.60;99.90;;;;;;2079166;28;20037;-72
2022/06/05 04:09:37;;;;;;;33.78;30.25;;;15.90;99.90;;;;;;2079526;28;20060;-72
2022/06/05 04:10:37;;;;;;;32.72;29.33;;;16.10;99.90;;;;;;2088037;28;20387;-72
2022/06/05 04:11:39;;;;;;;31.35;28.05;;;16.40;99.90;;;;;;2088248;28;20033;-72
2022/06/05 04:12:39;;;;;;;29.00;26.08;;;16.70;99.90;;;;;;2088252;28;20487;-73
2022/06/05 04:13:40;;;;;;;30.33;27.17;;;16.90;99.90;;;;;;2088233;28;20035;-72
2022/06/05 04:14:41;;;;;;;27.92;24.95;;;17.10;99.90;;;;;;2088262;28;20110;-72
2022/06/05 04:15:42;;;;;;;29.77;26.67;;;17.40;99.90;;;;;;2088254;28;20037;-72
2022/06/05 04:16:43;;;;;;;29.85;26.90;;;17.60;99.90;;;;;;2088167;28;20396;-72
2022/06/05 04:17:43;;;;;;;28.35;25.35;;;17.80;99.90;;;;;;2079032;28;20032;-72
2022/06/05 04:18:44;;;;;;;26.58;24.02;;;18.00;99.90;;;;;;2078893;28;20112;-72
2022/06/05 04:19:45;;;;;;;25.75;23.27;;;18.20;99.90;;;;;;2088306;28;20051;-72
2022/06/05 04:20:46;;;;;;;26.35;23.75;;;18.30;99.90;;;;;;2087949;28;20082;-73
2022/06/05 04:21:47;;;;;;;26.38;23.80;;;18.50;99.90;;;;;;2088028;28;20029;-72
2022/06/05 04:22:48;;;;;;;26.83;24.17;;;18.60;99.90;;;;;;2088159;28;20059;-72
2022/06/05 04:23:50;;;;;;;26.40;23.73;;;18.70;99.90;;;;;;2088226;28;20080;-71
2022/06/05 04:24:51;;;;;;;26.20;23.70;;;18.80;99.90;;;;;;2088119;28;20502;-70
2022/06/05 08:51:15;;;;;;;8.98;8.07;;;24.20;90.50;;;;;;2088105;28;20033;-72
2022/06/05 08:52:48;;;;;;;8.98;8.20;;;24.30;90.70;;;;;;2078855;28;20037;-72
2022/06/05 08:54:02;;;;;;;8.38;7.68;;;24.20;90.20;;;;;;2083402;28;20175;-74
2022/06/05 08:55:53;;;;;;;8.60;7.90;;;24.30;90.30;;;;;;2070729;28;20160;-72
2022/06/05 08:57:04;;;;;;;;;;;24.30;89.70;;;;;;2076575;28;20025;-72
2022/06/05 08:58:27;;;;;;;9.60;8.80;;;24.40;90.10;;;;;;2064394;28;20357;-72
2022/06/05 09:00:00;;;;;;;9.25;8.50;;;24.40;89.60;;;;;;2071798;28;20176;-74
2022/06/05 09:01:21;;;;;;;8.63;7.82;;;24.30;89.70;;;;;;2066061;28;20034;-72
2022/06/05 09:04:51;;;;;;;9.48;8.57;;;24.40;88.40;;;;;;2087763;28;20040;-73
2022/06/05 09:06:05;;;;;;;9.70;8.70;;;24.40;88.40;;;;;;2070948;28;20057;-72
2022/06/05 09:07:17;;;;;;;9.55;8.55;;;24.40;88.00;;;;;;2066263;28;20069;-73
2022/06/05 09:08:31;;;;;;;9.37;8.47;;;24.40;87.60;;;;;;2063665;28;20033;-71
2022/06/05 09:09:58;;;;;;;9.05;8.15;;;24.40;88.40;;;;;;2066217;28;20376;-74
2022/06/05 09:11:03;;;;;;;10.18;9.05;;;24.40;88.70;;;;;;2074852;28;20111;-71
2022/06/05 09:12:22;;;;;;;9.23;8.40;;;24.50;88.50;;;;;;2071009;28;20072;-72
2022/06/05 09:13:42;;;;;;;9.07;8.27;;;24.60;87.60;;;;;;2067835;28;20034;-73
2022/06/05 09:14:56;;;;;;;8.52;7.82;;;24.60;87.00;;;;;;2065146;28;20069;-74
2022/06/05 09:16:06;;;;;;;8.50;7.80;;;24.70;87.10;;;;;;2079479;28;20470;-76
2022/06/05 09:19:43;;;;;;;9.60;8.43;;;24.80;86.70;;;;;;2054622;28;20047;-73
2022/06/05 09:23:41;;;;;;;9.50;8.60;;;25.00;86.70;;;;;;2088091;28;20025;-73
2022/06/05 09:25:13;;;;;;;9.43;8.25;;;25.00;86.10;;;;;;2072568;28;20025;-75
2022/06/05 09:27:00;;;;;;;8.40;7.70;;;25.00;85.90;;;;;;2067448;28;20028;-74
2022/06/05 09:28:44;;;;;;;8.80;7.93;;;25.10;84.90;;;;;;2073776;28;20069;-75
2022/06/05 09:29:57;;;;;;;9.05;8.25;;;25.20;84.80;;;;;;2068183;28;20028;-73
2022/06/05 09:31:24;;;;;;;8.63;7.72;;;25.20;82.50;;;;;;2065046;28;20142;-74
2022/06/05 09:33:00;;;;;;;8.48;7.68;;;25.20;82.50;;;;;;2066503;28;20057;-72
2022/06/05 09:34:32;;;;;;;8.20;7.40;;;25.30;82.20;;;;;;2062606;28;20052;-73
2022/06/05 09:35:51;;;;;;;8.80;8.00;;;25.20;81.60;;;;;;2083614;28;20029;-72
2022/06/05 09:37:08;;;;;;;8.70;7.88;;;25.20;81.90;;;;;;2079007;28;20492;-73
2022/06/05 09:38:32;;;;;;;8.40;7.70;;;25.20;82.10;;;;;;2064662;28;20524;-72
2022/06/05 09:39:43;;;;;;;9.15;7.78;;;25.20;83.40;;;;;;2068626;28;20040;-73
2022/06/05 09:41:22;;;;;;;8.55;7.68;;;25.30;83.40;;;;;;2063827;28;20088;-72
2022/06/05 09:42:55;;;;;;;8.93;8.13;;;25.40;81.70;;;;;;2070749;28;20200;-74
2022/06/05 09:44:14;;;;;;;8.60;7.78;;;25.50;81.40;;;;;;2072929;28;20033;-74
2022/06/05 09:45:24;;;;;;;8.13;7.45;;;25.50;80.90;;;;;;2080826;28;20036;-73
2022/06/05 09:46:49;;;;;;;8.15;7.35;;;25.50;79.50;;;;;;2071345;28;20064;-74
2022/06/05 09:48:15;;;;;;;7.97;7.28;;;25.60;78.90;;;;;;2061355;28;20037;-72
2022/06/05 09:49:21;;;;;;;8.23;7.50;;;25.60;79.00;;;;;;2069415;28;20017;-72
2022/06/05 09:50:31;;;;;;;9.48;8.65;;;25.60;78.90;;;;;;2064488;28;20054;-73
2022/06/05 09:51:37;;;;;;;8.20;7.30;;;25.60;78.00;;;;;;2055934;28;20041;-75
2022/06/05 09:52:44;;;;;;;7.82;7.13;;;25.70;77.60;;;;;;2072329;28;20528;-73
2022/06/05 09:53:55;;;;;;;8.20;7.50;;;25.60;77.10;;;;;;2087557;28;20058;-73
2022/06/05 09:55:22;;;;;;;8.23;7.50;;;25.70;77.90;;;;;;2078417;28;20033;-73
2022/06/05 09:59:08;;;;;;;8.82;8.02;;;25.70;77.00;;;;;;2076377;28;20030;-73
2022/06/05 10:00:57;;;;;;;8.80;7.90;;;25.70;77.40;;;;;;2038107;29;20134;-73
2022/06/05 10:02:09;;;;;;;8.18;7.47;;;25.70;76.90;;;;;;2045345;29;20589;-75
2022/06/05 10:03:20;;;;;;;8.70;7.82;;;25.70;76.40;;;;;;2046158;29;20034;-72
2022/06/05 10:04:34;;;;;;;8.70;7.90;;;25.70;77.60;;;;;;2030764;29;20060;-72
2022/06/05 10:05:40;;;;;;;8.38;7.57;;;25.70;76.80;;;;;;2050734;28;20034;-72
2022/06/05 10:07:06;;;;;;;8.60;7.80;;;25.80;76.90;;;;;;2087241;28;20024;-72
2022/06/05 10:08:31;;;;;;;8.13;7.40;;;25.80;76.90;;;;;;2088165;28;20029;-71
2022/06/05 10:09:36;;;;;;;8.30;7.60;;;25.80;76.90;;;;;;2071223;28;20018;-72
2022/06/05 10:10:39;;;;;;;8.43;7.63;;;25.70;76.90;;;;;;2072401;28;20038;-72
2022/06/05 10:12:07;;;;;;;8.32;7.53;;;25.70;75.80;;;;;;2087449;28;20037;-72
2022/06/05 10:13:21;;;;;;;8.65;7.75;;;25.70;75.60;;;;;;2088172;28;20029;-72
2022/06/05 10:14:50;;;;;;;8.15;7.45;;;25.70;75.90;;;;;;2079706;28;20028;-71
2022/06/05 10:16:02;;;;;;;8.43;7.60;;;25.70;75.80;;;;;;2084739;28;20051;-71
2022/06/05 10:17:31;;;;;;;7.80;7.20;;;25.70;75.30;;;;;;2080959;28;20029;-71
2022/06/05 10:18:40;;;;;;;8.02;7.22;;;25.70;75.60;;;;;;2082459;28;20033;-71
2022/06/05 10:19:51;;;;;;;8.53;7.63;;;25.70;75.50;;;;;;2081245;28;20056;-71
2022/06/05 10:21:11;;;;;;;8.00;7.40;;;25.70;75.50;;;;;;2072498;28;20265;-73
2022/06/05 10:23:09;;;;;;;8.75;7.88;;;25.80;75.10;;;;;;2077617;28;20026;-71
2022/06/05 10:25:04;;;;;;;8.15;7.43;;;25.80;74.20;;;;;;2070786;28;20029;-74
2022/06/05 10:26:42;;;;;;;8.32;7.57;;;25.80;73.70;;;;;;2056308;28;20030;-74
2022/06/05 10:27:51;;;;;;;7.32;6.72;;;25.80;73.00;;;;;;2081007;28;20025;-73
2022/06/05 10:29:07;;;;;;;7.80;7.00;;;25.80;73.00;;;;;;2079462;28;20053;-72
2022/06/05 10:30:16;;;;;;;8.07;7.38;;;25.90;73.20;;;;;;2058554;28;20031;-71
2022/06/05 10:31:19;;;;;;;7.85;7.05;;;25.80;74.00;;;;;;2071587;28;20030;-71
2022/06/05 10:32:35;;;;;;;8.00;7.20;;;25.90;72.10;;;;;;2084894;28;20063;-72
2022/06/05 10:33:39;;;;;;;7.90;7.15;;;25.90;71.10;;;;;;2072471;28;20026;-72
2022/06/05 10:34:59;;;;;;;7.72;7.03;;;25.80;70.80;;;;;;2065174;28;20022;-71